createdAt,value
2022-10-05T00:00:23.043Z,7.62
2022-10-05T00:01:20.348Z,8.13
2022-10-05T00:02:22.120Z,7.63
2022-10-05T00:03:20.965Z,7.85
2022-10-05T00:04:22.799Z,8.13
2022-10-05T00:05:25.752Z,8.06
2022-10-05T00:06:23.204Z,9.37
2022-10-05T00:07:21.955Z,14.57
2022-10-05T00:08:21.992Z,15.33
2022-10-05T00:09:21.374Z,13.12
2022-10-05T00:10:19.870Z,11.75
2022-10-05T00:11:17.222Z,11.61
2022-10-05T00:12:19.114Z,11.70
2022-10-05T00:13:26.681Z,10.86
2022-10-05T00:14:28.081Z,9.76
2022-10-05T00:15:25.399Z,9.49
2022-10-05T00:16:22.746Z,9.18
2022-10-05T00:17:22.259Z,9.05
2022-10-05T00:18:21.069Z,9.29
2022-10-05T00:19:21.138Z,8.92
2022-10-05T00:20:21.414Z,9.30
2022-10-05T00:21:18.698Z,9.24
2022-10-05T00:22:17.318Z,9.19
2022-10-05T00:23:24.335Z,9.69
2022-10-05T00:24:21.720Z,9.60
2022-10-05T00:25:21.262Z,9.75
2022-10-05T00:26:20.734Z,9.41
2022-10-05T00:27:22.850Z,9.09
2022-10-05T00:28:27.765Z,8.72
2022-10-05T00:29:25.294Z,8.46
2022-10-05T00:30:24.050Z,8.23
2022-10-05T00:31:24.474Z,8.24
2022-10-05T00:32:21.774Z,8.39
2022-10-05T00:33:19.082Z,8.55
2022-10-05T00:34:17.104Z,8.49
2022-10-05T00:35:17.632Z,8.76
2022-10-05T00:36:15.184Z,8.63
2022-10-05T00:37:13.843Z,7.72
2022-10-05T00:38:11.191Z,7.88
2022-10-05T00:39:08.632Z,8.11
2022-10-05T00:40:19.779Z,8.60
2022-10-05T00:41:35.519Z,8.32
2022-10-05T00:42:38.697Z,7.69
2022-10-05T00:43:38.848Z,8.30
2022-10-05T00:44:48.227Z,8.38
2022-10-05T00:45:52.888Z,7.26
2022-10-05T00:47:03.564Z,7.77
2022-10-05T00:48:16.011Z,7.62
2022-10-05T00:49:26.156Z,7.85
2022-10-05T00:50:23.429Z,7.91
2022-10-05T00:51:36.763Z,7.69
2022-10-05T00:52:52.627Z,7.83
2022-10-05T00:54:05.006Z,7.38
2022-10-05T00:55:21.880Z,7.19
2022-10-05T00:56:41.887Z,7.53
2022-10-05T00:57:48.638Z,7.24
2022-10-05T00:58:45.990Z,7.55
2022-10-05T00:59:49.240Z,7.26
2022-10-05T01:00:54.944Z,7.39
2022-10-05T01:01:58.313Z,8.30
2022-10-05T01:02:58.498Z,7.30
2022-10-05T01:04:01.698Z,7.74
2022-10-05T01:05:01.803Z,7.43
2022-10-05T01:06:07.931Z,7.18
2022-10-05T01:07:11.260Z,7.44
2022-10-05T01:08:20.505Z,7.30
2022-10-05T01:09:44.236Z,7.45
2022-10-05T01:10:56.039Z,7.74
2022-10-05T01:11:53.325Z,8.07
2022-10-05T01:12:50.598Z,7.74
2022-10-05T01:13:47.901Z,7.86
2022-10-05T01:14:57.110Z,7.90
2022-10-05T01:15:54.602Z,7.92
2022-10-05T01:16:58.456Z,7.76
2022-10-05T01:18:14.221Z,7.40
2022-10-05T01:19:27.031Z,7.78
2022-10-05T01:20:27.195Z,7.62
2022-10-05T01:21:30.577Z,7.73
2022-10-05T01:22:30.710Z,7.78
2022-10-05T01:23:33.924Z,7.65
2022-10-05T01:24:41.847Z,8.22
2022-10-05T01:26:01.588Z,7.93
2022-10-05T01:26:58.848Z,8.13
2022-10-05T01:28:05.268Z,7.70
2022-10-05T01:29:15.527Z,7.49
2022-10-05T01:30:15.389Z,7.19
2022-10-05T01:31:32.687Z,7.81
2022-10-05T01:32:34.730Z,7.66
2022-10-05T01:33:39.665Z,7.58
2022-10-05T01:34:55.654Z,7.94
2022-10-05T01:36:01.773Z,7.20
2022-10-05T01:36:59.011Z,7.29
2022-10-05T01:38:05.397Z,8.13
2022-10-05T01:39:16.353Z,7.31
2022-10-05T01:40:13.636Z,7.29
2022-10-05T01:41:27.950Z,7.53
2022-10-05T01:42:44.305Z,7.56
2022-10-05T01:44:01.710Z,7.46
2022-10-05T01:45:08.002Z,7.25
2022-10-05T01:46:22.164Z,7.33
2022-10-05T01:47:31.230Z,7.40
2022-10-05T01:48:47.914Z,7.13
2022-10-05T01:50:00.649Z,6.91
2022-10-05T01:51:20.947Z,7.19
2022-10-05T01:52:21.259Z,7.58
2022-10-05T01:53:18.544Z,7.07
2022-10-05T01:54:18.688Z,7.62
2022-10-05T01:55:34.514Z,7.97
2022-10-05T01:56:34.661Z,7.92
2022-10-05T01:57:34.771Z,8.15
2022-10-05T01:58:40.586Z,7.88
2022-10-05T01:59:51.575Z,7.81
2022-10-05T02:00:59.022Z,7.78
2022-10-05T02:02:09.972Z,7.78
2022-10-05T02:03:19.359Z,7.70
2022-10-05T02:04:59.777Z,6.92
2022-10-05T02:05:46.355Z,6.88
2022-10-05T02:06:46.475Z,7.31
2022-10-05T02:07:57.157Z,7.64
2022-10-05T02:09:03.405Z,7.41
2022-10-05T02:10:26.999Z,7.59
2022-10-05T02:11:24.566Z,7.65
2022-10-05T02:12:25.007Z,7.58
2022-10-05T02:13:27.932Z,7.32
2022-10-05T02:14:30.723Z,7.84
2022-10-05T02:15:34.449Z,8.17
2022-10-05T02:16:31.748Z,7.60
2022-10-05T02:17:50.768Z,7.53
2022-10-05T02:18:54.690Z,7.67
2022-10-05T02:19:58.336Z,7.93
2022-10-05T02:20:59.193Z,7.73
2022-10-05T02:22:02.619Z,7.67
2022-10-05T02:23:07.648Z,7.81
2022-10-05T02:24:11.315Z,7.35
2022-10-05T02:25:14.852Z,7.71
2022-10-05T02:26:13.339Z,7.67
2022-10-05T02:27:14.726Z,7.97
2022-10-05T02:28:30.751Z,8.21
2022-10-05T02:29:31.647Z,7.61
2022-10-05T02:30:31.813Z,7.91
2022-10-05T02:31:36.252Z,8.18
2022-10-05T02:32:56.200Z,8.42
2022-10-05T02:34:13.489Z,8.24
2022-10-05T02:35:16.313Z,8.27
2022-10-05T02:36:19.767Z,8.14
2022-10-05T02:37:30.311Z,7.99
2022-10-05T02:38:41.690Z,8.14
2022-10-05T02:39:41.730Z,7.84
2022-10-05T02:40:57.296Z,7.83
2022-10-05T02:42:12.943Z,7.42
2022-10-05T02:43:19.163Z,8.09
2022-10-05T02:44:29.835Z,7.94
2022-10-05T02:45:36.117Z,8.00
2022-10-05T02:46:41.749Z,7.77
2022-10-05T02:47:39.028Z,8.04
2022-10-05T02:48:39.097Z,7.83
2022-10-05T02:49:51.785Z,7.29
2022-10-05T02:50:54.919Z,7.92
2022-10-05T02:51:55.606Z,8.13
2022-10-05T02:53:10.044Z,7.89
2022-10-05T02:54:10.099Z,8.50
2022-10-05T02:55:19.305Z,7.94
2022-10-05T02:56:31.658Z,8.57
2022-10-05T02:57:38.698Z,7.84
2022-10-05T02:58:46.018Z,8.35
2022-10-05T02:59:55.353Z,7.96
2022-10-05T03:01:11.066Z,8.69
2022-10-05T03:02:23.792Z,8.51
2022-10-05T03:03:37.335Z,8.55
2022-10-05T03:04:34.689Z,8.02
2022-10-05T03:05:37.997Z,8.30
2022-10-05T03:06:40.292Z,7.67
2022-10-05T03:07:40.473Z,8.13
2022-10-05T03:08:44.891Z,7.84
2022-10-05T03:09:52.584Z,8.41
2022-10-05T03:10:58.551Z,8.47
2022-10-05T03:12:18.875Z,7.98
2022-10-05T03:13:16.165Z,8.15
2022-10-05T03:14:19.044Z,8.09
2022-10-05T03:15:26.035Z,8.00
2022-10-05T03:16:26.148Z,8.09
2022-10-05T03:17:28.422Z,8.58
2022-10-05T03:18:30.494Z,8.26
2022-10-05T03:19:33.996Z,7.78
2022-10-05T03:20:42.435Z,7.70
2022-10-05T03:21:58.462Z,8.37
2022-10-05T03:23:01.101Z,8.49
2022-10-05T03:24:18.697Z,8.58
2022-10-05T03:25:24.703Z,8.49
2022-10-05T03:26:37.078Z,8.17
2022-10-05T03:27:40.198Z,8.00
2022-10-05T03:28:40.228Z,7.63
2022-10-05T03:29:43.384Z,7.88
2022-10-05T03:30:52.506Z,7.71
2022-10-05T03:32:22.338Z,7.17
2022-10-05T03:33:25.254Z,7.62
2022-10-05T03:34:38.812Z,7.56
2022-10-05T03:35:52.409Z,7.58
2022-10-05T03:36:56.143Z,7.75
2022-10-05T03:37:59.449Z,8.15
2022-10-05T03:39:19.836Z,8.24
2022-10-05T03:40:35.974Z,7.83
2022-10-05T03:41:45.333Z,7.51
2022-10-05T03:43:01.137Z,7.83
2022-10-05T03:44:04.148Z,7.93
2022-10-05T03:45:07.187Z,7.96
2022-10-05T03:46:12.603Z,8.29
2022-10-05T03:47:28.091Z,8.08
2022-10-05T03:48:33.394Z,8.29
2022-10-05T03:49:42.727Z,8.56
2022-10-05T03:50:40.766Z,8.47
2022-10-05T03:51:46.257Z,7.94
2022-10-05T03:52:46.414Z,7.93
2022-10-05T03:53:48.025Z,7.90
2022-10-05T03:54:52.261Z,8.16
2022-10-05T03:56:08.063Z,8.13
2022-10-05T03:57:12.853Z,8.17
2022-10-05T03:58:15.963Z,7.79
2022-10-05T03:59:39.747Z,7.48
2022-10-05T04:00:39.954Z,7.40
2022-10-05T04:01:44.852Z,7.43
2022-10-05T04:02:56.140Z,7.59
2022-10-05T04:03:58.078Z,7.22
2022-10-05T04:05:10.512Z,7.32
2022-10-05T04:06:14.228Z,7.11
2022-10-05T04:07:17.747Z,7.62
2022-10-05T04:08:28.587Z,7.84
2022-10-05T04:09:48.467Z,8.32
2022-10-05T04:10:49.573Z,7.37
2022-10-05T04:11:51.804Z,7.63
2022-10-05T04:12:54.937Z,7.69
2022-10-05T04:13:57.232Z,7.07
2022-10-05T04:14:59.135Z,7.65
2022-10-05T04:16:05.310Z,7.55
2022-10-05T04:17:25.755Z,7.51
2022-10-05T04:18:31.048Z,7.78
2022-10-05T04:19:41.710Z,9.48
2022-10-05T04:20:45.088Z,8.99
2022-10-05T04:21:52.448Z,9.33
2022-10-05T04:22:58.769Z,9.55
2022-10-05T04:24:12.319Z,8.02
2022-10-05T04:25:23.826Z,7.56
2022-10-05T04:26:30.753Z,7.25
2022-10-05T04:27:35.947Z,7.84
2022-10-05T04:28:52.029Z,7.33
2022-10-05T04:30:12.470Z,7.29
2022-10-05T04:31:17.880Z,8.09
2022-10-05T04:32:18.025Z,8.26
2022-10-05T04:33:16.190Z,7.88
2022-10-05T04:34:31.930Z,7.97
2022-10-05T04:35:47.718Z,7.92
2022-10-05T04:36:50.362Z,7.01
2022-10-05T04:38:10.265Z,7.36
2022-10-05T04:39:31.223Z,7.77
2022-10-05T04:40:51.775Z,7.17
2022-10-05T04:41:49.578Z,7.52
2022-10-05T04:43:01.983Z,7.21
2022-10-05T04:44:15.469Z,6.90
2022-10-05T04:45:12.875Z,7.36
2022-10-05T04:46:28.207Z,7.49
2022-10-05T04:47:48.896Z,7.40
2022-10-05T04:49:04.578Z,7.15
2022-10-05T04:50:17.090Z,6.40
2022-10-05T04:51:33.108Z,7.52
2022-10-05T04:52:48.906Z,7.37
2022-10-05T04:53:46.148Z,7.76
2022-10-05T04:54:54.750Z,7.59
2022-10-05T04:56:07.180Z,7.23
2022-10-05T04:57:12.485Z,7.32
2022-10-05T04:58:40.076Z,7.08
2022-10-05T04:59:39.490Z,7.31
2022-10-05T05:00:59.918Z,7.61
2022-10-05T05:02:10.309Z,7.37
2022-10-05T05:03:26.186Z,7.23
2022-10-05T05:04:41.142Z,7.74
2022-10-05T05:06:16.313Z,7.99
2022-10-05T05:07:46.140Z,7.77
2022-10-05T05:09:01.863Z,7.51
2022-10-05T05:09:59.134Z,7.87
2022-10-05T05:11:16.849Z,7.78
2022-10-05T05:12:19.207Z,7.47
2022-10-05T05:13:19.255Z,7.25
2022-10-05T05:14:28.058Z,7.39
2022-10-05T05:15:31.345Z,6.73
2022-10-05T05:16:43.397Z,6.49
2022-10-05T05:18:01.066Z,6.52
2022-10-05T05:19:10.414Z,6.77
2022-10-05T05:20:07.696Z,6.93
2022-10-05T05:21:27.178Z,6.71
2022-10-05T05:22:25.905Z,6.32
2022-10-05T05:23:41.513Z,6.36
2022-10-05T05:24:42.071Z,5.99
2022-10-05T05:25:51.010Z,6.52
2022-10-05T05:26:51.341Z,6.28
2022-10-05T05:27:55.058Z,6.38
2022-10-05T05:29:12.924Z,6.26
2022-10-05T05:30:13.096Z,6.98
2022-10-05T05:31:18.360Z,7.22
2022-10-05T05:32:26.563Z,6.84
2022-10-05T05:33:35.081Z,6.35
2022-10-05T05:34:44.723Z,6.12
2022-10-05T05:35:42.011Z,6.78
2022-10-05T05:36:57.532Z,6.18
2022-10-05T05:38:02.674Z,6.54
2022-10-05T05:39:05.766Z,5.96
2022-10-05T05:40:14.121Z,6.31
2022-10-05T05:41:24.970Z,6.41
2022-10-05T05:42:37.347Z,5.83
2022-10-05T05:43:43.796Z,5.88
2022-10-05T05:44:48.683Z,5.97
2022-10-05T05:45:48.832Z,6.43
2022-10-05T05:47:04.396Z,6.43
2022-10-05T05:48:10.015Z,6.23
2022-10-05T05:49:15.575Z,6.31
2022-10-05T05:50:24.502Z,6.23
2022-10-05T05:51:21.758Z,5.89
2022-10-05T05:52:38.223Z,6.40
2022-10-05T05:53:54.009Z,5.50
2022-10-05T05:54:58.951Z,5.83
2022-10-05T05:56:01.340Z,5.51
2022-10-05T05:57:09.033Z,5.77
2022-10-05T05:58:21.738Z,5.49
2022-10-05T05:59:27.699Z,5.78
2022-10-05T06:00:31.273Z,5.87
2022-10-05T06:01:44.293Z,5.69
2022-10-05T06:02:46.538Z,5.36
2022-10-05T06:03:47.974Z,5.34
2022-10-05T06:04:49.982Z,5.72
2022-10-05T06:05:55.108Z,5.65
2022-10-05T06:06:55.317Z,5.34
2022-10-05T06:07:54.631Z,5.33
2022-10-05T06:09:01.753Z,5.95
2022-10-05T06:09:59.017Z,5.38
2022-10-05T06:11:05.280Z,5.51
2022-10-05T06:12:12.109Z,5.83
2022-10-05T06:13:17.784Z,5.26
2022-10-05T06:14:21.584Z,5.37
2022-10-05T06:15:57.263Z,6.14
2022-10-05T06:17:02.522Z,5.10
2022-10-05T06:18:03.984Z,5.33
2022-10-05T06:19:13.461Z,5.67
2022-10-05T06:20:28.538Z,5.83
2022-10-05T06:21:40.881Z,5.84
2022-10-05T06:22:43.003Z,5.90
2022-10-05T06:23:40.260Z,5.71
2022-10-05T06:25:08.526Z,6.25
2022-10-05T06:26:11.729Z,6.18
2022-10-05T06:27:09.064Z,5.79
2022-10-05T06:28:13.643Z,5.62
2022-10-05T06:29:17.377Z,6.12
2022-10-05T06:30:17.210Z,5.69
2022-10-05T06:31:43.991Z,5.69
2022-10-05T06:32:50.236Z,5.83
2022-10-05T06:33:47.532Z,6.03
2022-10-05T06:35:01.839Z,5.78
2022-10-05T06:36:13.319Z,5.94
2022-10-05T06:37:20.861Z,6.26
2022-10-05T06:38:30.932Z,6.41
2022-10-05T06:39:46.422Z,6.52
2022-10-05T06:40:43.719Z,6.56
2022-10-05T06:41:47.025Z,6.86
2022-10-05T06:42:53.202Z,6.79
2022-10-05T06:43:57.220Z,6.87
2022-10-05T06:44:57.248Z,6.95
2022-10-05T06:46:02.157Z,6.92
2022-10-05T06:46:59.506Z,6.66
2022-10-05T06:48:09.475Z,7.12
2022-10-05T06:49:15.611Z,7.17
2022-10-05T06:50:13.140Z,6.83
2022-10-05T06:51:16.924Z,6.81
2022-10-05T06:52:33.125Z,6.94
2022-10-05T06:53:33.262Z,7.16
2022-10-05T06:54:50.168Z,7.01
2022-10-05T06:55:59.539Z,6.63
2022-10-05T06:57:08.883Z,6.79
2022-10-05T06:58:26.441Z,6.96
2022-10-05T06:59:35.812Z,6.60
2022-10-05T07:00:46.211Z,7.56
2022-10-05T07:01:43.749Z,7.87
2022-10-05T07:02:59.749Z,7.15
2022-10-05T07:03:59.769Z,7.33
2022-10-05T07:05:02.886Z,7.39
2022-10-05T07:06:00.150Z,8.08
2022-10-05T07:07:17.787Z,7.45
2022-10-05T07:08:33.770Z,7.49
2022-10-05T07:09:36.944Z,7.21
2022-10-05T07:10:52.341Z,7.11
2022-10-05T07:12:04.631Z,7.76
2022-10-05T07:13:05.320Z,8.25
2022-10-05T07:14:20.446Z,7.62
2022-10-05T07:15:23.678Z,7.26
2022-10-05T07:16:21.045Z,7.00
2022-10-05T07:17:30.504Z,6.59
2022-10-05T07:18:39.828Z,6.66
2022-10-05T07:19:37.116Z,6.70
2022-10-05T07:20:52.886Z,6.60
2022-10-05T07:22:02.223Z,6.34
2022-10-05T07:23:17.956Z,7.05
2022-10-05T07:24:33.721Z,7.30
2022-10-05T07:25:42.501Z,6.77
2022-10-05T07:26:43.505Z,6.21
2022-10-05T07:27:50.918Z,6.05
2022-10-05T07:29:07.549Z,6.04
2022-10-05T07:30:07.436Z,6.10
2022-10-05T07:31:13.852Z,6.91
2022-10-05T07:32:26.259Z,6.65
2022-10-05T07:33:36.932Z,6.66
2022-10-05T07:34:43.493Z,6.71
2022-10-05T07:36:19.010Z,6.86
2022-10-05T07:37:42.963Z,6.29
2022-10-05T07:38:54.090Z,7.11
2022-10-05T07:40:00.476Z,7.22
2022-10-05T07:41:05.092Z,6.96
2022-10-05T07:42:11.000Z,7.20
2022-10-05T07:43:17.278Z,6.91
2022-10-05T07:44:23.330Z,7.15
2022-10-05T07:45:35.197Z,7.14
2022-10-05T07:46:51.566Z,6.76
2022-10-05T07:47:54.956Z,7.15
2022-10-05T07:48:58.179Z,7.04
2022-10-05T07:50:02.557Z,6.98
2022-10-05T07:51:07.162Z,7.43
2022-10-05T07:52:13.996Z,7.05
2022-10-05T07:53:19.506Z,7.06
2022-10-05T07:54:16.985Z,7.28
2022-10-05T07:55:17.028Z,7.17
2022-10-05T07:56:14.283Z,6.87
2022-10-05T07:57:23.597Z,6.73
2022-10-05T07:58:30.757Z,6.90
2022-10-05T07:59:35.716Z,6.62
2022-10-05T08:01:05.421Z,7.15
2022-10-05T08:02:08.180Z,6.82
2022-10-05T08:03:17.305Z,5.90
2022-10-05T08:04:19.798Z,6.11
2022-10-05T08:05:28.520Z,5.61
2022-10-05T08:06:38.198Z,5.36
2022-10-05T08:07:36.526Z,5.57
2022-10-05T08:08:47.040Z,5.12
2022-10-05T08:10:04.594Z,5.28
2022-10-05T08:11:17.017Z,5.44
2022-10-05T08:12:30.822Z,5.79
2022-10-05T08:13:30.860Z,4.74
2022-10-05T08:14:28.191Z,5.64
2022-10-05T08:15:31.602Z,4.95
2022-10-05T08:16:35.489Z,5.71
2022-10-05T08:18:01.813Z,5.26
2022-10-05T08:18:59.302Z,5.48
2022-10-05T08:20:04.411Z,5.84
2022-10-05T08:21:01.733Z,5.82
2022-10-05T08:22:04.131Z,5.44
2022-10-05T08:23:10.642Z,6.82
2022-10-05T08:24:23.032Z,6.92
2022-10-05T08:25:35.569Z,5.81
2022-10-05T08:26:46.394Z,6.16
2022-10-05T08:27:51.980Z,6.25
2022-10-05T08:29:01.113Z,6.21
2022-10-05T08:30:02.780Z,5.83
2022-10-05T08:31:07.867Z,5.76
2022-10-05T08:32:12.086Z,5.81
2022-10-05T08:33:17.563Z,6.09
2022-10-05T08:34:26.120Z,5.75
2022-10-05T08:35:35.327Z,5.45
2022-10-05T08:36:38.595Z,5.84
2022-10-05T08:37:40.621Z,5.86
2022-10-05T08:38:39.062Z,6.52
2022-10-05T08:39:39.348Z,6.23
2022-10-05T08:40:48.677Z,6.50
2022-10-05T08:41:46.136Z,6.39
2022-10-05T08:42:55.798Z,6.32
2022-10-05T08:43:58.905Z,5.77
2022-10-05T08:44:56.209Z,6.09
2022-10-05T08:45:56.101Z,6.07
2022-10-05T08:46:59.293Z,6.00
2022-10-05T08:48:15.205Z,5.48
2022-10-05T08:49:24.755Z,5.64
2022-10-05T08:50:31.921Z,5.15
2022-10-05T08:51:29.230Z,5.17
2022-10-05T08:52:29.127Z,5.07
2022-10-05T08:53:45.284Z,4.59
2022-10-05T08:54:42.595Z,4.25
2022-10-05T08:55:54.875Z,4.33
2022-10-05T08:56:52.195Z,4.22
2022-10-05T08:58:10.645Z,4.30
2022-10-05T08:59:13.920Z,4.26
2022-10-05T09:00:19.149Z,4.28
2022-10-05T09:01:27.329Z,4.26
2022-10-05T09:02:36.732Z,3.54
2022-10-05T09:03:54.588Z,3.95
2022-10-05T09:04:51.838Z,3.79
2022-10-05T09:06:07.622Z,3.68
2022-10-05T09:07:07.784Z,4.46
2022-10-05T09:08:23.688Z,3.90
2022-10-05T09:09:34.902Z,3.83
2022-10-05T09:11:02.492Z,4.00
2022-10-05T09:12:18.406Z,4.21
2022-10-05T09:13:27.618Z,4.62
2022-10-05T09:14:34.653Z,4.50
2022-10-05T09:15:59.600Z,4.41
2022-10-05T09:17:05.877Z,4.25
2022-10-05T09:18:27.124Z,4.80
2022-10-05T09:19:36.499Z,4.33
2022-10-05T09:20:49.549Z,4.02
2022-10-05T09:21:57.938Z,3.70
2022-10-05T09:23:27.709Z,3.62
2022-10-05T09:24:48.702Z,4.03
2022-10-05T09:25:49.026Z,4.25
2022-10-05T09:27:04.484Z,4.52
2022-10-05T09:28:07.634Z,4.33
2022-10-05T09:29:23.233Z,4.59
2022-10-05T09:30:23.505Z,4.58
2022-10-05T09:31:53.023Z,3.20
2022-10-05T09:33:16.303Z,2.92
2022-10-05T09:34:16.411Z,3.78
2022-10-05T09:35:22.324Z,3.87
2022-10-05T09:36:38.930Z,3.49
2022-10-05T09:37:51.407Z,3.10
2022-10-05T09:38:49.002Z,2.75
2022-10-05T09:39:49.123Z,3.06
2022-10-05T09:40:52.318Z,2.93
2022-10-05T09:41:55.587Z,2.39
2022-10-05T09:42:58.869Z,2.51
2022-10-05T09:44:14.832Z,2.69
2022-10-05T09:45:33.701Z,2.78
2022-10-05T09:46:31.008Z,2.98
2022-10-05T09:47:28.345Z,3.10
2022-10-05T09:48:46.420Z,3.42
2022-10-05T09:50:01.850Z,2.92
2022-10-05T09:51:17.232Z,1.92
2022-10-05T09:52:29.553Z,1.96
2022-10-05T09:53:32.972Z,1.97
2022-10-05T09:54:39.112Z,1.97
2022-10-05T09:55:55.041Z,2.22
2022-10-05T09:57:07.272Z,2.07
2022-10-05T09:58:16.518Z,1.81
2022-10-05T09:59:25.908Z,2.11
2022-10-05T10:00:29.230Z,2.43
2022-10-05T10:01:33.528Z,2.40
2022-10-05T10:02:50.297Z,2.22
2022-10-05T10:04:08.046Z,1.87
2022-10-05T10:05:05.867Z,2.04
2022-10-05T10:06:14.172Z,1.99
2022-10-05T10:07:26.792Z,2.39
2022-10-05T10:08:42.589Z,2.35
2022-10-05T10:09:52.029Z,2.16
2022-10-05T10:10:58.234Z,1.82
2022-10-05T10:11:58.391Z,1.92
2022-10-05T10:13:14.455Z,1.98
2022-10-05T10:14:14.563Z,1.79
2022-10-05T10:15:31.031Z,1.90
2022-10-05T10:16:31.229Z,1.75
2022-10-05T10:17:46.611Z,1.58
2022-10-05T10:19:03.049Z,2.00
2022-10-05T10:20:03.114Z,1.79
2022-10-05T10:21:18.988Z,1.86
2022-10-05T10:22:25.180Z,1.92
2022-10-05T10:23:42.758Z,1.83
2022-10-05T10:24:40.017Z,1.77
2022-10-05T10:25:40.134Z,1.72
2022-10-05T10:26:56.201Z,1.86
2022-10-05T10:28:02.578Z,1.73
2022-10-05T10:29:15.109Z,1.71
2022-10-05T10:30:33.141Z,1.47
2022-10-05T10:31:51.489Z,1.70
2022-10-05T10:33:13.378Z,1.61
2022-10-05T10:34:43.847Z,1.60
2022-10-05T10:35:41.143Z,1.76
2022-10-05T10:36:44.399Z,1.67
2022-10-05T10:38:00.323Z,1.78
2022-10-05T10:39:08.093Z,1.92
2022-10-05T10:40:29.690Z,1.94
2022-10-05T10:41:32.902Z,1.89
2022-10-05T10:42:41.418Z,1.97
2022-10-05T10:43:54.086Z,1.49
2022-10-05T10:45:09.873Z,1.54
2022-10-05T10:46:25.986Z,1.47
2022-10-05T10:47:45.863Z,1.65
2022-10-05T10:48:55.909Z,1.54
2022-10-05T10:49:59.209Z,1.62
2022-10-05T10:50:59.318Z,1.58
2022-10-05T10:51:59.407Z,2.04
2022-10-05T10:52:59.658Z,1.98
2022-10-05T10:54:12.447Z,1.63
2022-10-05T10:55:32.492Z,1.66
2022-10-05T10:56:30.086Z,1.35
2022-10-05T10:57:30.253Z,1.41
2022-10-05T10:58:46.093Z,1.52
2022-10-05T10:59:49.426Z,1.53
2022-10-05T11:01:04.147Z,1.36
2022-10-05T11:02:20.228Z,1.63
2022-10-05T11:03:20.315Z,1.67
2022-10-05T11:04:17.667Z,1.62
2022-10-05T11:05:14.883Z,1.57
2022-10-05T11:06:23.617Z,1.39
2022-10-05T11:07:39.445Z,1.56
2022-10-05T11:08:55.367Z,1.66
2022-10-05T11:09:52.699Z,1.23
2022-10-05T11:11:02.114Z,1.48
2022-10-05T11:12:08.378Z,1.55
2022-10-05T11:13:14.569Z,1.61
2022-10-05T11:14:34.898Z,1.43
2022-10-05T11:17:07.362Z,1.49
2022-10-05T11:18:04.716Z,1.49
2022-10-05T11:19:13.981Z,1.56
2022-10-05T11:20:29.797Z,1.51
2022-10-05T11:21:36.729Z,1.60
2022-10-05T11:22:36.970Z,1.17
2022-10-05T11:23:38.660Z,1.37
2022-10-05T11:24:42.122Z,1.56
2022-10-05T11:26:08.380Z,1.37
2022-10-05T11:27:11.631Z,1.45
2022-10-05T11:28:27.753Z,1.71
2022-10-05T11:29:25.336Z,1.25
2022-10-05T11:30:25.770Z,1.48
2022-10-05T11:31:41.533Z,1.29
2022-10-05T11:32:41.714Z,1.25
2022-10-05T11:33:50.977Z,1.28
2022-10-05T11:34:48.231Z,1.35
2022-10-05T11:35:45.554Z,1.39
2022-10-05T11:37:01.119Z,1.37
2022-10-05T11:37:58.447Z,1.38
2022-10-05T11:39:18.759Z,1.24
2022-10-05T11:40:16.712Z,1.23
2022-10-05T11:41:16.783Z,1.14
2022-10-05T11:42:19.941Z,1.47
2022-10-05T11:43:36.786Z,1.33
2022-10-05T11:45:12.080Z,1.42
2022-10-05T11:46:21.593Z,1.45
2022-10-05T11:47:25.586Z,1.65
2022-10-05T11:48:31.937Z,1.52
2022-10-05T11:49:29.190Z,1.47
2022-10-05T11:50:40.234Z,1.42
2022-10-05T11:51:37.680Z,1.49
2022-10-05T11:52:54.151Z,1.52
2022-10-05T11:53:51.425Z,1.38
2022-10-05T11:55:11.441Z,1.43
2022-10-05T11:57:51.784Z,1.77
2022-10-05T11:58:55.043Z,1.53
2022-10-05T11:59:52.279Z,1.70
2022-10-05T12:01:00.218Z,1.52
2022-10-05T12:02:04.797Z,1.39
2022-10-05T12:03:20.740Z,1.45
2022-10-05T12:04:25.787Z,1.51
2022-10-05T12:05:32.468Z,1.50
2022-10-05T12:06:32.599Z,1.20
2022-10-05T12:07:38.754Z,1.29
2022-10-05T12:08:54.040Z,1.38
2022-10-05T12:10:17.136Z,1.43
2022-10-05T12:11:16.980Z,1.21
2022-10-05T12:12:22.148Z,1.21
2022-10-05T12:13:19.438Z,1.24
2022-10-05T12:14:16.707Z,1.28
2022-10-05T12:15:23.484Z,1.32
2022-10-05T12:16:27.596Z,1.34
2022-10-05T12:17:27.853Z,1.42
2022-10-05T12:18:31.212Z,1.15
2022-10-05T12:19:29.832Z,1.30
2022-10-05T12:20:46.285Z,1.28
2022-10-05T12:21:46.393Z,1.14
2022-10-05T12:22:46.436Z,1.27
2022-10-05T12:23:43.680Z,1.25
2022-10-05T12:24:43.915Z,1.26
2022-10-05T12:25:48.668Z,1.14
2022-10-05T12:27:06.190Z,1.13
2022-10-05T12:28:10.477Z,1.24
2022-10-05T12:29:14.017Z,1.43
2022-10-05T12:30:33.371Z,1.22
2022-10-05T12:31:33.464Z,1.19
2022-10-05T12:32:39.197Z,1.12
2022-10-05T12:33:43.585Z,1.20
2022-10-05T12:34:49.470Z,1.32
2022-10-05T12:36:04.914Z,1.30
2022-10-05T12:37:10.620Z,1.40
2022-10-05T12:38:18.629Z,1.25
2022-10-05T12:39:15.888Z,1.44
2022-10-05T12:40:15.763Z,1.44
2022-10-05T12:41:29.309Z,1.32
2022-10-05T12:42:26.592Z,1.12
2022-10-05T12:43:54.273Z,1.27
2022-10-05T12:45:13.376Z,1.27
2022-10-05T12:46:29.151Z,1.41
2022-10-05T12:47:53.671Z,1.42
2022-10-05T12:49:06.199Z,1.31
2022-10-05T12:50:12.523Z,1.28
2022-10-05T12:51:17.676Z,1.27
2022-10-05T12:52:28.325Z,1.52
2022-10-05T12:53:40.640Z,1.37
2022-10-05T12:54:47.398Z,1.44
2022-10-05T12:55:59.898Z,2.23
2022-10-05T12:57:06.096Z,1.59
2022-10-05T12:58:21.103Z,1.31
2022-10-05T12:59:27.546Z,1.49
2022-10-05T13:00:25.280Z,1.51
2022-10-05T13:01:25.365Z,1.49
2022-10-05T13:02:31.008Z,1.31
2022-10-05T13:03:35.214Z,1.34
2022-10-05T13:04:38.462Z,1.73
2022-10-05T13:05:35.894Z,1.78
2022-10-05T13:06:42.004Z,1.63
2022-10-05T13:07:48.579Z,1.68
2022-10-05T13:08:57.180Z,1.41
2022-10-05T13:10:12.712Z,1.24
2022-10-05T13:11:14.762Z,1.51
2022-10-05T13:12:20.184Z,1.18
2022-10-05T13:13:26.177Z,1.21
2022-10-05T13:14:42.785Z,1.15
2022-10-05T13:15:52.600Z,1.37
2022-10-05T13:17:06.912Z,1.30
2022-10-05T13:18:04.245Z,1.23
2022-10-05T13:19:04.395Z,1.01
2022-10-05T13:20:12.204Z,1.16
2022-10-05T13:21:15.736Z,1.12
2022-10-05T13:22:18.740Z,1.29
2022-10-05T13:23:31.453Z,1.20
2022-10-05T13:24:47.226Z,1.41
2022-10-05T13:25:55.190Z,1.48
2022-10-05T13:26:57.762Z,1.32
2022-10-05T13:27:57.931Z,1.50
2022-10-05T13:29:14.241Z,1.56
2022-10-05T13:30:15.853Z,1.52
2022-10-05T13:31:17.582Z,1.50
2022-10-05T13:32:21.592Z,1.52
2022-10-05T13:33:21.701Z,1.64
2022-10-05T13:34:30.928Z,1.58
2022-10-05T13:35:43.939Z,1.52
2022-10-05T13:36:59.320Z,1.55
2022-10-05T13:38:10.995Z,1.64
2022-10-05T13:39:20.200Z,1.59
2022-10-05T13:40:17.473Z,1.90
2022-10-05T13:41:23.667Z,1.46
2022-10-05T13:42:29.816Z,1.48
2022-10-05T13:43:33.487Z,1.68
2022-10-05T13:44:30.907Z,1.66
2022-10-05T13:45:36.010Z,1.55
2022-10-05T13:46:39.315Z,1.30
2022-10-05T13:47:45.555Z,1.59
2022-10-05T13:48:46.481Z,1.61
2022-10-05T13:49:55.220Z,1.55
2022-10-05T13:51:03.959Z,1.47
2022-10-05T13:52:04.174Z,1.65
2022-10-05T13:53:13.564Z,1.39
2022-10-05T13:54:18.858Z,1.36
2022-10-05T13:55:34.645Z,1.40
2022-10-05T13:56:39.630Z,1.59
2022-10-05T13:58:06.268Z,1.54
2022-10-05T13:59:29.349Z,1.46
2022-10-05T14:00:27.429Z,1.64
2022-10-05T14:01:41.661Z,1.56
2022-10-05T14:02:41.250Z,1.43
2022-10-05T14:03:39.244Z,1.40
2022-10-05T14:04:49.602Z,1.44
2022-10-05T14:05:55.839Z,1.31
2022-10-05T14:06:53.337Z,1.56
2022-10-05T14:07:52.950Z,1.56
2022-10-05T14:08:53.550Z,1.68
2022-10-05T14:09:51.454Z,1.48
2022-10-05T14:10:48.742Z,1.48
2022-10-05T14:11:50.643Z,1.60
2022-10-05T14:12:54.085Z,1.66
2022-10-05T14:13:53.143Z,1.43
2022-10-05T14:14:55.134Z,1.38
2022-10-05T14:16:04.662Z,1.48
2022-10-05T14:17:05.781Z,1.40
2022-10-05T14:18:22.275Z,1.69
2022-10-05T14:19:26.804Z,1.65
2022-10-05T14:20:24.130Z,1.56
2022-10-05T14:21:23.179Z,1.72
2022-10-05T14:22:22.554Z,1.80
2022-10-05T14:23:25.387Z,2.46
2022-10-05T14:24:43.616Z,1.41
2022-10-05T14:25:53.761Z,1.19
2022-10-05T14:26:53.280Z,1.33
2022-10-05T14:27:53.091Z,1.32
2022-10-05T14:28:57.529Z,1.40
2022-10-05T14:30:13.154Z,1.29
2022-10-05T14:31:15.753Z,1.32
2022-10-05T14:32:15.900Z,1.37
2022-10-05T14:33:17.056Z,1.42
2022-10-05T14:34:40.537Z,1.41
2022-10-05T14:35:43.664Z,1.40
2022-10-05T14:36:44.027Z,1.15
2022-10-05T14:38:10.621Z,1.39
2022-10-05T14:39:12.912Z,1.41
2022-10-05T14:40:21.985Z,1.28
2022-10-05T14:41:19.315Z,1.50
2022-10-05T14:42:19.445Z,1.48
2022-10-05T14:43:16.733Z,1.31
2022-10-05T14:44:14.034Z,1.56
2022-10-05T14:45:16.233Z,1.60
2022-10-05T14:46:16.630Z,1.57
2022-10-05T14:47:20.799Z,1.43
2022-10-05T14:48:18.176Z,1.43
2022-10-05T14:49:29.419Z,1.39
2022-10-05T14:50:31.337Z,1.42
2022-10-05T14:51:31.953Z,1.57
2022-10-05T14:52:34.834Z,1.42
2022-10-05T14:53:44.460Z,1.56
2022-10-05T14:55:01.978Z,1.55
2022-10-05T14:56:18.565Z,1.06
2022-10-05T14:57:25.226Z,1.30